createdAt,value
2019-01-08T00:00:03.694Z,999.28
2019-01-08T00:01:02.316Z,999.27
2019-01-08T00:02:02.304Z,999.25
2019-01-08T00:03:02.307Z,999.23
2019-01-08T00:04:02.293Z,999.22
2019-01-08T00:05:02.280Z,999.16
2019-01-08T00:06:02.265Z,999.15
2019-01-08T00:07:02.255Z,999.15
2019-01-08T00:08:02.248Z,999.08
2019-01-08T00:09:02.245Z,999.01
2019-01-08T00:10:02.227Z,999.01
2019-01-08T00:11:02.218Z,998.97
2019-01-08T00:12:02.209Z,998.98
2019-01-08T00:13:02.196Z,998.99
2019-01-08T00:14:02.187Z,998.91
2019-01-08T00:15:02.188Z,998.95
2019-01-08T00:16:02.166Z,998.88
2019-01-08T00:17:02.161Z,998.94
2019-01-08T00:18:02.149Z,998.83
2019-01-08T00:19:02.138Z,998.83
2019-01-08T00:20:02.129Z,998.77
2019-01-08T00:21:02.124Z,998.72
2019-01-08T00:22:02.112Z,998.73
2019-01-08T00:23:02.100Z,998.7
2019-01-08T00:24:02.093Z,998.74
2019-01-08T00:25:02.079Z,998.68
2019-01-08T00:26:02.068Z,998.66
2019-01-08T00:27:02.067Z,998.63
2019-01-08T00:28:02.055Z,998.72
2019-01-08T00:29:02.047Z,998.64
2019-01-08T00:30:02.034Z,998.6
2019-01-08T00:31:02.021Z,998.6
2019-01-08T00:32:02.015Z,998.56
2019-01-08T00:33:02.006Z,998.56
2019-01-08T00:34:01.991Z,998.55
2019-01-08T00:35:01.985Z,998.51
2019-01-08T00:36:01.976Z,998.42
2019-01-08T00:37:01.971Z,998.41
2019-01-08T00:38:01.957Z,998.44
2019-01-08T00:39:01.949Z,998.42
2019-01-08T00:40:01.937Z,998.38
2019-01-08T00:41:01.928Z,998.43
2019-01-08T00:42:01.917Z,998.39
2019-01-08T00:43:01.925Z,998.31
2019-01-08T00:44:01.900Z,998.33
2019-01-08T00:45:01.889Z,998.31
2019-01-08T00:46:01.880Z,998.23
2019-01-08T00:47:01.869Z,998.18
2019-01-08T00:48:01.857Z,998.08
2019-01-08T00:49:01.849Z,998.05
2019-01-08T00:50:01.846Z,998.06
2019-01-08T00:51:01.830Z,998.01
2019-01-08T00:52:01.818Z,997.96
2019-01-08T00:53:01.825Z,998.02
2019-01-08T00:54:01.801Z,997.91
2019-01-08T00:55:01.792Z,997.83
2019-01-08T00:56:01.778Z,997.8
2019-01-08T00:57:01.769Z,997.78
2019-01-08T00:58:01.761Z,997.77
2019-01-08T00:59:01.749Z,997.8
2019-01-08T01:00:01.744Z,997.75
2019-01-08T01:01:01.730Z,997.69
2019-01-08T01:02:01.721Z,997.67
2019-01-08T01:03:01.710Z,997.59
2019-01-08T01:04:01.717Z,997.55
2019-01-08T01:05:01.720Z,997.54
2019-01-08T01:06:01.684Z,997.51
2019-01-08T01:07:01.672Z,997.49
2019-01-08T01:08:01.662Z,997.45
2019-01-08T01:09:01.677Z,997.48
2019-01-08T01:10:01.651Z,997.42
2019-01-08T01:11:01.645Z,997.37
2019-01-08T01:12:01.624Z,997.35
2019-01-08T01:13:01.614Z,997.4
2019-01-08T01:14:01.603Z,997.38
2019-01-08T01:15:01.592Z,997.28
2019-01-08T01:16:01.597Z,997.32
2019-01-08T01:17:01.577Z,997.26
2019-01-08T01:18:01.566Z,997.39
2019-01-08T01:19:01.570Z,997.39
2019-01-08T01:20:01.564Z,997.35
2019-01-08T01:21:01.539Z,997.28
2019-01-08T01:22:01.528Z,997.24
2019-01-08T01:23:01.519Z,997.21
2019-01-08T01:24:01.524Z,997.23
2019-01-08T01:25:01.498Z,997.28
2019-01-08T01:26:01.489Z,997.33
2019-01-08T01:27:01.479Z,997.28
2019-01-08T01:28:01.470Z,997.26
2019-01-08T01:29:01.459Z,997.18
2019-01-08T01:30:01.450Z,997.11
2019-01-08T01:31:01.456Z,997.18
2019-01-08T01:32:01.430Z,997.1
2019-01-08T01:33:01.419Z,997.08
2019-01-08T01:34:01.411Z,997.1
2019-01-08T01:35:01.402Z,996.96
2019-01-08T01:36:01.391Z,996.94
2019-01-08T01:37:01.381Z,997.02
2019-01-08T01:38:01.369Z,996.97
2019-01-08T01:39:01.361Z,997
2019-01-08T01:40:01.351Z,996.95
2019-01-08T01:41:01.341Z,996.87
2019-01-08T01:42:01.338Z,996.88
2019-01-08T01:43:01.325Z,996.87
2019-01-08T01:44:01.319Z,996.9
2019-01-08T01:45:01.305Z,996.95
2019-01-08T01:46:01.294Z,996.93
2019-01-08T01:47:01.282Z,996.94
2019-01-08T01:48:01.273Z,996.88
2019-01-08T01:49:01.263Z,996.91
2019-01-08T01:50:01.251Z,996.86
2019-01-08T01:51:01.244Z,996.84
2019-01-08T01:52:01.237Z,996.82
2019-01-08T01:53:01.238Z,996.8
2019-01-08T01:54:01.213Z,996.73
2019-01-08T01:55:01.203Z,996.74
2019-01-08T01:56:01.225Z,996.71
2019-01-08T01:57:01.186Z,996.63
2019-01-08T01:58:01.175Z,996.66
2019-01-08T01:59:08.245Z,996.56
2019-01-08T02:00:01.156Z,996.51
2019-01-08T02:01:01.173Z,996.49
2019-01-08T02:02:01.138Z,996.45
2019-01-08T02:03:01.134Z,996.43
2019-01-08T02:04:01.126Z,996.38
2019-01-08T02:05:01.157Z,996.36
2019-01-08T02:06:01.108Z,996.36
2019-01-08T02:07:01.087Z,996.4
2019-01-08T02:08:01.082Z,996.35
2019-01-08T02:09:01.079Z,996.29
2019-01-08T02:10:01.062Z,996.25
2019-01-08T02:11:01.056Z,996.27
2019-01-08T02:12:01.040Z,996.23
2019-01-08T02:13:01.034Z,996.21
2019-01-08T02:14:01.022Z,996.09
2019-01-08T02:15:01.027Z,996.04
2019-01-08T02:16:01.000Z,995.97
2019-01-08T02:17:00.994Z,995.91
2019-01-08T02:18:00.990Z,995.94
2019-01-08T02:19:00.977Z,995.98
2019-01-08T02:20:02.866Z,995.87
2019-01-08T02:21:00.950Z,995.91
2019-01-08T02:22:00.943Z,995.85
2019-01-08T02:23:00.933Z,995.9
2019-01-08T02:24:00.926Z,995.92
2019-01-08T02:25:00.913Z,995.81
2019-01-08T02:26:00.903Z,995.9
2019-01-08T02:27:00.893Z,995.86
2019-01-08T02:28:00.896Z,995.68
2019-01-08T02:29:00.874Z,995.75
2019-01-08T02:30:00.869Z,995.74
2019-01-08T02:31:00.853Z,995.88
2019-01-08T02:32:00.845Z,995.86
2019-01-08T02:33:00.843Z,995.79
2019-01-08T02:34:00.827Z,995.81
2019-01-08T02:35:00.814Z,995.68
2019-01-08T02:36:00.809Z,995.67
2019-01-08T02:37:00.808Z,995.62
2019-01-08T02:38:00.787Z,995.68
2019-01-08T02:39:00.776Z,995.57
2019-01-08T02:40:00.764Z,995.51
2019-01-08T02:41:00.755Z,995.48
2019-01-08T02:42:00.867Z,995.4
2019-01-08T02:43:00.740Z,995.47
2019-01-08T02:44:00.753Z,995.43
2019-01-08T02:45:00.715Z,995.45
2019-01-08T02:46:00.726Z,995.4
2019-01-08T02:47:00.697Z,995.37
2019-01-08T02:48:00.693Z,995.36
2019-01-08T02:49:00.676Z,995.39
2019-01-08T02:50:00.677Z,995.49
2019-01-08T02:51:00.659Z,995.47
2019-01-08T02:52:00.653Z,995.41
2019-01-08T02:53:00.650Z,995.34
2019-01-08T02:54:00.652Z,995.33
2019-01-08T02:55:00.622Z,995.22
2019-01-08T02:56:00.611Z,995.21
2019-01-08T02:57:00.597Z,995.2
2019-01-08T02:58:00.591Z,995.1
2019-01-08T02:59:00.595Z,995.09
2019-01-08T03:00:00.581Z,995.05
2019-01-08T03:01:00.595Z,995.01
2019-01-08T03:02:00.549Z,994.98
2019-01-08T03:03:00.549Z,994.93
2019-01-08T03:04:00.533Z,994.86
2019-01-08T03:05:00.522Z,994.9
2019-01-08T03:06:00.514Z,994.91
2019-01-08T03:07:00.502Z,994.9
2019-01-08T03:08:00.494Z,994.84
2019-01-08T03:09:00.486Z,994.85
2019-01-08T03:10:00.482Z,994.78
2019-01-08T03:11:00.469Z,994.74
2019-01-08T03:12:00.457Z,994.7
2019-01-08T03:13:00.446Z,994.64
2019-01-08T03:14:00.441Z,994.65
2019-01-08T03:15:00.429Z,994.62
2019-01-08T03:16:00.419Z,994.62
2019-01-08T03:17:00.415Z,994.61
2019-01-08T03:18:00.409Z,994.51
2019-01-08T03:19:00.388Z,994.52
2019-01-08T03:20:00.382Z,994.54
2019-01-08T03:21:00.370Z,994.5
2019-01-08T03:22:00.362Z,994.44
2019-01-08T03:23:00.410Z,994.46
2019-01-08T03:24:00.344Z,994.5
2019-01-08T03:25:00.334Z,994.36
2019-01-08T03:26:00.328Z,994.42
2019-01-08T03:27:00.316Z,994.29
2019-01-08T03:28:00.305Z,994.26
2019-01-08T03:29:00.295Z,994.25
2019-01-08T03:30:00.286Z,994.13
2019-01-08T03:31:00.293Z,994.15
2019-01-08T03:32:00.267Z,994.16
2019-01-08T03:33:00.271Z,994.06
2019-01-08T03:34:00.248Z,994.18
2019-01-08T03:35:00.246Z,994.13
2019-01-08T03:36:00.291Z,994.1
2019-01-08T03:37:00.218Z,994.1
2019-01-08T03:38:00.214Z,994.08
2019-01-08T03:39:00.205Z,994.05
2019-01-08T03:40:00.257Z,994.08
2019-01-08T03:41:00.196Z,994.01
2019-01-08T03:42:00.189Z,993.92
2019-01-08T03:43:00.173Z,993.98
2019-01-08T03:44:00.161Z,993.97
2019-01-08T03:45:00.279Z,993.83
2019-01-08T03:46:00.138Z,993.97
2019-01-08T03:47:00.132Z,993.92
2019-01-08T03:48:00.123Z,993.9
2019-01-08T03:49:00.114Z,993.91
2019-01-08T03:50:00.158Z,993.8
2019-01-08T03:51:03.803Z,993.84
2019-01-08T03:52:00.084Z,993.77
2019-01-08T03:53:00.070Z,993.81
2019-01-08T03:54:00.061Z,993.84
2019-01-08T03:55:00.050Z,993.73
2019-01-08T03:56:00.040Z,993.76
2019-01-08T03:57:00.036Z,993.8
2019-01-08T03:58:00.023Z,993.74
2019-01-08T03:59:00.017Z,993.73
2019-01-08T04:00:00.014Z,993.68
2019-01-08T04:00:59.997Z,993.67
2019-01-08T04:01:59.988Z,993.57
2019-01-08T04:02:59.976Z,993.62
2019-01-08T04:03:59.967Z,993.53
2019-01-08T04:04:59.965Z,993.55
2019-01-08T04:05:59.950Z,993.55
2019-01-08T04:06:59.939Z,993.47
2019-01-08T04:07:59.929Z,993.54
2019-01-08T04:08:59.920Z,993.34
2019-01-08T04:09:59.910Z,993.34
2019-01-08T04:10:59.902Z,993.44
2019-01-08T04:11:59.893Z,993.33
2019-01-08T04:12:59.897Z,993.35
2019-01-08T04:13:59.872Z,993.28
2019-01-08T04:14:59.862Z,993.29
2019-01-08T04:16:00.273Z,993.36
2019-01-08T04:16:59.844Z,993.32
2019-01-08T04:17:59.835Z,993.26
2019-01-08T04:18:59.822Z,993.26
2019-01-08T04:19:59.816Z,993.25
2019-01-08T04:20:59.806Z,993.24
2019-01-08T04:21:59.796Z,993.2
2019-01-08T04:22:59.788Z,993.33
2019-01-08T04:23:59.777Z,993.2
2019-01-08T04:24:59.771Z,993.19
2019-01-08T04:25:59.765Z,993.18
2019-01-08T04:26:59.751Z,993.1
2019-01-08T04:27:59.747Z,993.13
2019-01-08T04:28:59.750Z,993.14
2019-01-08T04:29:59.722Z,993.12
2019-01-08T04:30:59.710Z,993.06
2019-01-08T04:32:00.507Z,992.99
2019-01-08T04:32:59.707Z,993.1
2019-01-08T04:33:59.686Z,993.02
2019-01-08T04:34:59.678Z,993.04
2019-01-08T04:35:59.666Z,993
2019-01-08T04:36:59.657Z,993.01
2019-01-08T04:37:59.646Z,993
2019-01-08T04:38:59.638Z,992.96
2019-01-08T04:39:59.640Z,992.88
2019-01-08T04:40:59.619Z,992.85
2019-01-08T04:41:59.617Z,992.89
2019-01-08T04:42:59.600Z,992.89
2019-01-08T04:43:59.590Z,992.87
2019-01-08T04:44:59.592Z,992.88
2019-01-08T04:45:59.573Z,992.87
2019-01-08T04:46:59.564Z,992.83
2019-01-08T04:47:59.559Z,992.83
2019-01-08T04:48:59.555Z,992.75
2019-01-08T04:49:59.546Z,992.76
2019-01-08T04:50:59.545Z,992.73
2019-01-08T04:51:59.517Z,992.65
2019-01-08T04:52:59.512Z,992.78
2019-01-08T04:53:59.497Z,992.77
2019-01-08T04:54:59.504Z,992.75
2019-01-08T04:55:59.491Z,992.71
2019-01-08T04:56:59.472Z,992.63
2019-01-08T04:57:59.476Z,992.71
2019-01-08T04:58:59.456Z,992.63
2019-01-08T04:59:59.443Z,992.65
2019-01-08T05:00:59.433Z,992.65
2019-01-08T05:01:59.429Z,992.66
2019-01-08T05:02:59.415Z,992.64
2019-01-08T05:03:59.412Z,992.6
2019-01-08T05:04:59.396Z,992.54
2019-01-08T05:05:59.394Z,992.55
2019-01-08T05:06:59.378Z,992.57
2019-01-08T05:07:59.368Z,992.57
2019-01-08T05:08:59.360Z,992.55
2019-01-08T05:09:59.348Z,992.61
2019-01-08T05:10:59.339Z,992.46
2019-01-08T05:11:59.331Z,992.54
2019-01-08T05:12:59.325Z,992.5
2019-01-08T05:13:59.311Z,992.55
2019-01-08T05:14:59.302Z,992.59
2019-01-08T05:15:59.292Z,992.51
2019-01-08T05:16:59.282Z,992.42
2019-01-08T05:17:59.270Z,992.52
2019-01-08T05:18:59.263Z,992.43
2019-01-08T05:19:59.254Z,992.57
2019-01-08T05:20:59.243Z,992.44
2019-01-08T05:21:59.232Z,992.46
2019-01-08T05:22:59.226Z,992.51
2019-01-08T05:23:59.213Z,992.43
2019-01-08T05:24:59.215Z,992.43
2019-01-08T05:25:59.194Z,992.41
2019-01-08T05:26:59.186Z,992.31
2019-01-08T05:27:59.180Z,992.25
2019-01-08T05:28:59.168Z,992.34
2019-01-08T05:30:07.474Z,992.37
2019-01-08T05:30:59.163Z,992.39
2019-01-08T05:31:59.142Z,992.41
2019-01-08T05:32:59.130Z,992.31
2019-01-08T05:33:59.119Z,992.38
2019-01-08T05:34:59.112Z,992.48
2019-01-08T05:35:59.102Z,992.45
2019-01-08T05:36:59.090Z,992.4
2019-01-08T05:37:59.132Z,992.47
2019-01-08T05:38:59.075Z,992.4
2019-01-08T05:39:59.072Z,992.4
2019-01-08T05:40:59.054Z,992.38
2019-01-08T05:41:59.061Z,992.45
2019-01-08T05:42:59.036Z,992.37
2019-01-08T05:43:59.025Z,992.46
2019-01-08T05:44:59.014Z,992.42
2019-01-08T05:45:59.010Z,992.43
2019-01-08T05:46:58.998Z,992.49
2019-01-08T05:47:58.991Z,992.42
2019-01-08T05:48:58.993Z,992.38
2019-01-08T05:49:58.966Z,992.44
2019-01-08T05:50:58.959Z,992.43
2019-01-08T05:51:58.950Z,992.36
2019-01-08T05:52:58.949Z,992.34
2019-01-08T05:53:58.931Z,992.3
2019-01-08T05:54:58.921Z,992.19
2019-01-08T05:55:58.912Z,992.31
2019-01-08T05:56:58.903Z,992.34
2019-01-08T05:57:58.898Z,992.32
2019-01-08T05:58:58.885Z,992.22
2019-01-08T05:59:58.889Z,992.23
2019-01-08T06:00:58.880Z,992.27
2019-01-08T06:01:58.858Z,992.29
2019-01-08T06:02:58.848Z,992.21
2019-01-08T06:03:58.838Z,992.2
2019-01-08T06:04:58.838Z,992.21
2019-01-08T06:05:58.822Z,992.15
2019-01-08T06:06:58.821Z,992.25
2019-01-08T06:07:58.801Z,992.23
2019-01-08T06:08:58.795Z,992.26
2019-01-08T06:09:58.798Z,992.27
2019-01-08T06:10:58.783Z,992.18
2019-01-08T06:11:58.763Z,992.21
2019-01-08T06:12:58.760Z,992.15
2019-01-08T06:13:58.745Z,992.18
2019-01-08T06:14:58.741Z,992.25
2019-01-08T06:15:58.729Z,992.27
2019-01-08T06:16:58.720Z,992.24
2019-01-08T06:17:58.708Z,992.25
2019-01-08T06:18:58.700Z,992.28
2019-01-08T06:19:58.690Z,992.36
2019-01-08T06:20:58.684Z,992.35
2019-01-08T06:21:58.670Z,992.42
2019-01-08T06:22:58.662Z,992.42
2019-01-08T06:23:58.651Z,992.34
2019-01-08T06:25:00.502Z,992.31
2019-01-08T06:25:58.633Z,992.37
2019-01-08T06:26:58.624Z,992.31
2019-01-08T06:27:58.613Z,992.32
2019-01-08T06:28:58.609Z,992.32
2019-01-08T06:29:58.594Z,992.3
2019-01-08T06:30:58.585Z,992.22
2019-01-08T06:31:58.587Z,992.26
2019-01-08T06:32:58.569Z,992.21
2019-01-08T06:33:58.564Z,992.17
2019-01-08T06:34:58.560Z,992.32
2019-01-08T06:35:58.537Z,992.29
2019-01-08T06:36:58.539Z,992.22
2019-01-08T06:37:58.519Z,992.24
2019-01-08T06:38:58.558Z,992.18
2019-01-08T06:39:58.499Z,992.19
2019-01-08T06:40:58.490Z,992.28
2019-01-08T06:41:58.485Z,992.22
2019-01-08T06:42:58.476Z,992.29
2019-01-08T06:43:58.490Z,992.25
2019-01-08T06:44:58.451Z,992.26
2019-01-08T06:45:58.443Z,992.2
2019-01-08T06:46:58.433Z,992.11
2019-01-08T06:47:58.432Z,992.15
2019-01-08T06:48:58.414Z,992.11
2019-01-08T06:49:58.405Z,992.1
2019-01-08T06:50:58.399Z,992.13
2019-01-08T06:51:58.383Z,992.05
2019-01-08T06:52:58.377Z,992.08
2019-01-08T06:54:00.519Z,992.06
2019-01-08T06:54:58.369Z,992.05
2019-01-08T06:55:58.348Z,992.08
2019-01-08T06:56:58.387Z,992.12
2019-01-08T06:57:58.334Z,992.13
2019-01-08T06:58:58.323Z,992.12
2019-01-08T06:59:58.313Z,992.11
2019-01-08T07:00:58.306Z,992.03
2019-01-08T07:01:58.293Z,992.11
2019-01-08T07:02:58.282Z,992.08
2019-01-08T07:03:58.275Z,992.2
2019-01-08T07:04:58.265Z,992.18
2019-01-08T07:05:58.256Z,992.09
2019-01-08T07:06:58.247Z,992.06
2019-01-08T07:07:58.237Z,992.01
2019-01-08T07:08:58.227Z,992.04
2019-01-08T07:09:58.219Z,992.09
2019-01-08T07:10:58.220Z,992.1
2019-01-08T07:11:58.200Z,992.04
2019-01-08T07:12:58.191Z,992
2019-01-08T07:13:58.184Z,991.95
2019-01-08T07:14:58.173Z,991.97
2019-01-08T07:15:58.162Z,991.95
2019-01-08T07:16:58.154Z,992.04
2019-01-08T07:17:58.151Z,992
2019-01-08T07:18:58.137Z,992
2019-01-08T07:19:58.128Z,992.01
2019-01-08T07:20:58.117Z,991.9
2019-01-08T07:21:58.110Z,991.94
2019-01-08T07:22:58.098Z,991.97
2019-01-08T07:23:58.090Z,991.93
2019-01-08T07:24:58.086Z,991.96
2019-01-08T07:25:58.076Z,992.01
2019-01-08T07:26:58.065Z,991.99
2019-01-08T07:27:58.055Z,991.98
2019-01-08T07:28:58.043Z,992.02
2019-01-08T07:29:58.035Z,992.06
2019-01-08T07:30:58.027Z,992.04
2019-01-08T07:31:58.018Z,992.04
2019-01-08T07:32:58.007Z,992.02
2019-01-08T07:33:58.002Z,992.09
2019-01-08T07:34:57.988Z,992.13
2019-01-08T07:35:57.982Z,992.08
2019-01-08T07:36:57.972Z,992.08
2019-01-08T07:37:57.963Z,992.09
2019-01-08T07:38:57.956Z,992.11
2019-01-08T07:39:57.957Z,992.09
2019-01-08T07:40:57.936Z,992.21
2019-01-08T07:41:57.923Z,992.14
2019-01-08T07:42:57.920Z,992.13
2019-01-08T07:43:57.915Z,992.16
2019-01-08T07:44:57.899Z,992.07
2019-01-08T07:45:57.904Z,992.07
2019-01-08T07:46:57.883Z,992.12
2019-01-08T07:47:57.877Z,992.11
2019-01-08T07:48:57.868Z,992.03
2019-01-08T07:49:57.859Z,992.11
2019-01-08T07:50:57.865Z,992.14
2019-01-08T07:51:57.839Z,992.09
2019-01-08T07:52:57.830Z,992.05
2019-01-08T07:53:57.821Z,992.05
2019-01-08T07:54:57.892Z,992.1
2019-01-08T07:55:57.805Z,992.11
2019-01-08T07:56:57.795Z,992.11
2019-01-08T07:57:57.792Z,992.16
2019-01-08T07:58:57.779Z,992.23
2019-01-08T07:59:57.769Z,992.19
2019-01-08T08:00:57.763Z,992.25
2019-01-08T08:01:57.753Z,992.18
2019-01-08T08:02:57.744Z,992.18
2019-01-08T08:03:57.739Z,992.21
2019-01-08T08:04:57.724Z,992.16
2019-01-08T08:05:57.718Z,992.15
2019-01-08T08:06:57.708Z,992.17
2019-01-08T08:07:57.697Z,992.13
2019-01-08T08:08:57.707Z,992.04
2019-01-08T08:09:57.681Z,992.09
2019-01-08T08:10:57.671Z,992.06
2019-01-08T08:11:57.667Z,992.06
2019-01-08T08:12:57.656Z,992.1
2019-01-08T08:13:57.648Z,992.08
2019-01-08T08:14:57.643Z,992.11
2019-01-08T08:15:57.634Z,992.08
2019-01-08T08:16:57.624Z,992.09
2019-01-08T08:17:57.617Z,992.05
2019-01-08T08:18:57.616Z,992.01
2019-01-08T08:19:57.599Z,992.09
2019-01-08T08:20:57.590Z,992.01
2019-01-08T08:21:57.584Z,991.99
2019-01-08T08:22:57.573Z,991.95
2019-01-08T08:23:57.573Z,991.97
2019-01-08T08:24:57.563Z,991.92
2019-01-08T08:25:57.554Z,991.95
2019-01-08T08:26:57.539Z,991.88
2019-01-08T08:27:57.533Z,991.93
2019-01-08T08:28:57.522Z,991.98
2019-01-08T08:29:57.515Z,992
2019-01-08T08:30:58.734Z,992.01
2019-01-08T08:31:57.499Z,992.05
2019-01-08T08:32:57.495Z,992
2019-01-08T08:33:57.481Z,992.04
2019-01-08T08:34:57.473Z,992.03
2019-01-08T08:35:57.464Z,992.07
2019-01-08T08:36:57.454Z,992.12
2019-01-08T08:37:57.449Z,992.14
2019-01-08T08:38:57.440Z,992.09
2019-01-08T08:39:57.883Z,992.15
2019-01-08T08:40:57.434Z,992.05
2019-01-08T08:41:57.417Z,992.13
2019-01-08T08:42:57.426Z,992.11
2019-01-08T08:43:57.404Z,992.16
2019-01-08T08:44:57.392Z,992.17
2019-01-08T08:45:57.381Z,992.1
2019-01-08T08:46:57.372Z,992.18
2019-01-08T08:47:57.372Z,992.1
2019-01-08T08:48:57.387Z,992.14
2019-01-08T08:49:57.354Z,992.08
2019-01-08T08:50:57.339Z,992.02
2019-01-08T08:51:57.337Z,992.03
2019-01-08T08:52:57.333Z,992.02
2019-01-08T08:53:57.323Z,991.98
2019-01-08T08:55:01.662Z,991.97
2019-01-08T08:55:57.299Z,992
2019-01-08T08:56:57.299Z,992
2019-01-08T08:57:57.285Z,992
2019-01-08T08:58:57.278Z,991.96
2019-01-08T08:59:57.276Z,991.96
2019-01-08T09:00:57.257Z,991.86
2019-01-08T09:01:57.244Z,991.88
2019-01-08T09:02:57.244Z,991.9
2019-01-08T09:03:57.239Z,991.92
2019-01-08T09:04:57.223Z,991.84
2019-01-08T09:05:57.216Z,991.88
2019-01-08T09:06:57.204Z,991.89
2019-01-08T09:07:57.197Z,991.94
2019-01-08T09:08:57.196Z,991.86
2019-01-08T09:09:57.179Z,991.87
2019-01-08T09:10:57.171Z,991.91
2019-01-08T09:11:57.166Z,991.91
2019-01-08T09:12:57.525Z,991.85
2019-01-08T09:13:57.149Z,991.86
2019-01-08T09:14:57.139Z,991.8
2019-01-08T09:15:57.133Z,991.88
2019-01-08T09:16:57.123Z,991.87
2019-01-08T09:17:57.116Z,991.88
2019-01-08T09:18:57.105Z,991.89
2019-01-08T09:19:57.100Z,991.83
2019-01-08T09:20:57.092Z,991.82
2019-01-08T09:21:57.084Z,991.84
2019-01-08T09:22:57.074Z,991.77
2019-01-08T09:23:57.066Z,991.81
2019-01-08T09:24:57.063Z,991.83
2019-01-08T09:25:57.051Z,991.87
2019-01-08T09:26:57.068Z,991.83
2019-01-08T09:27:57.030Z,991.79
2019-01-08T09:28:57.023Z,991.76
2019-01-08T09:29:57.016Z,991.81
2019-01-08T09:30:57.007Z,991.8
2019-01-08T09:31:57.007Z,991.79
2019-01-08T09:32:56.999Z,991.75
2019-01-08T09:33:56.987Z,991.79
2019-01-08T09:34:56.972Z,991.79
2019-01-08T09:35:56.965Z,991.72
2019-01-08T09:36:56.955Z,991.73
2019-01-08T09:37:56.956Z,991.8
2019-01-08T09:38:56.940Z,991.78
2019-01-08T09:39:56.937Z,991.79
2019-01-08T09:40:56.933Z,991.77
2019-01-08T09:41:56.914Z,991.82
2019-01-08T09:42:56.908Z,991.85
2019-01-08T09:43:56.901Z,991.77
2019-01-08T09:44:56.897Z,991.72
2019-01-08T09:45:56.887Z,991.86
2019-01-08T09:46:56.879Z,991.78
2019-01-08T09:47:56.876Z,991.77
2019-01-08T09:48:56.867Z,991.78
2019-01-08T09:49:56.940Z,991.79
2019-01-08T09:50:56.847Z,991.74
2019-01-08T09:51:56.839Z,991.69
2019-01-08T09:52:56.833Z,991.75
2019-01-08T09:53:56.823Z,991.76
2019-01-08T09:54:56.815Z,991.75
2019-01-08T09:55:56.812Z,991.71
2019-01-08T09:56:56.804Z,991.64
2019-01-08T09:57:56.794Z,991.65
2019-01-08T09:58:56.785Z,991.73
2019-01-08T09:59:56.776Z,991.65
2019-01-08T10:00:56.769Z,991.61
2019-01-08T10:01:56.761Z,991.67
2019-01-08T10:02:56.753Z,991.61
2019-01-08T10:03:56.745Z,991.58
2019-01-08T10:04:56.743Z,991.6
2019-01-08T10:05:56.735Z,991.59
2019-01-08T10:06:56.729Z,991.63
2019-01-08T10:07:56.723Z,991.59
2019-01-08T10:08:56.749Z,991.59
2019-01-08T10:09:56.707Z,991.55
2019-01-08T10:10:57.960Z,991.58
2019-01-08T10:11:56.687Z,991.53
2019-01-08T10:12:56.683Z,991.51
2019-01-08T10:13:56.676Z,991.51
2019-01-08T10:14:56.670Z,991.52
2019-01-08T10:15:56.669Z,991.51
2019-01-08T10:16:56.651Z,991.48
2019-01-08T10:17:56.649Z,991.41
2019-01-08T10:18:56.649Z,991.37
2019-01-08T10:19:56.627Z,991.42
2019-01-08T10:20:56.618Z,991.39
2019-01-08T10:21:56.612Z,991.41
2019-01-08T10:22:56.605Z,991.46
2019-01-08T10:23:56.598Z,991.38
2019-01-08T10:24:56.589Z,991.36
2019-01-08T10:25:56.593Z,991.38
2019-01-08T10:26:56.579Z,991.37
2019-01-08T10:27:56.565Z,991.38
2019-01-08T10:28:56.557Z,991.32
2019-01-08T10:29:57.032Z,991.45
2019-01-08T10:30:56.543Z,991.33
2019-01-08T10:31:56.534Z,991.46
2019-01-08T10:32:56.530Z,991.39
2019-01-08T10:33:56.526Z,991.45
2019-01-08T10:34:56.513Z,991.41
2019-01-08T10:35:56.506Z,991.44
2019-01-08T10:36:56.497Z,991.42
2019-01-08T10:37:56.492Z,991.53
2019-01-08T10:38:56.485Z,991.43
2019-01-08T10:39:56.475Z,991.34
2019-01-08T10:40:56.468Z,991.35
2019-01-08T10:41:56.463Z,991.29
2019-01-08T10:42:56.455Z,991.35
2019-01-08T10:43:56.459Z,991.37
2019-01-08T10:44:56.443Z,991.29
2019-01-08T10:45:56.434Z,991.3
2019-01-08T10:46:56.432Z,991.24
2019-01-08T10:47:56.421Z,991.3
2019-01-08T10:48:56.414Z,991.2
2019-01-08T10:49:56.408Z,991.21
2019-01-08T10:50:56.406Z,991.2
2019-01-08T10:51:56.400Z,991.2
2019-01-08T10:52:56.395Z,991.25
2019-01-08T10:53:56.393Z,991.16
2019-01-08T10:54:56.454Z,991.17
2019-01-08T10:55:56.372Z,991.16
2019-01-08T10:56:56.363Z,991.1
2019-01-08T10:57:56.358Z,991.1
2019-01-08T10:58:56.359Z,991.1
2019-01-08T10:59:56.348Z,991.02
2019-01-08T11:00:56.340Z,990.99
2019-01-08T11:01:56.348Z,990.98
2019-01-08T11:02:56.324Z,991.02
2019-01-08T11:03:56.317Z,991.02
2019-01-08T11:04:56.309Z,990.95
2019-01-08T11:05:56.307Z,990.95
2019-01-08T11:06:56.298Z,990.99
2019-01-08T11:07:56.294Z,991.03
2019-01-08T11:08:56.288Z,991.02
2019-01-08T11:09:56.276Z,990.99
2019-01-08T11:10:56.300Z,990.92
2019-01-08T11:11:56.266Z,990.85
2019-01-08T11:12:56.255Z,990.94
2019-01-08T11:13:56.265Z,990.85
2019-01-08T11:14:56.244Z,990.91
2019-01-08T11:15:56.237Z,990.95
2019-01-08T11:16:56.229Z,990.84
2019-01-08T11:17:56.223Z,990.93
2019-01-08T11:18:56.225Z,991.02
2019-01-08T11:19:56.211Z,990.95
2019-01-08T11:20:56.204Z,990.98
2019-01-08T11:21:56.197Z,990.98
2019-01-08T11:22:56.191Z,990.89
2019-01-08T11:23:56.188Z,990.89
2019-01-08T11:24:56.178Z,990.93
2019-01-08T11:25:56.175Z,990.97
2019-01-08T11:26:56.166Z,991.01
2019-01-08T11:27:56.165Z,990.93
2019-01-08T11:28:56.152Z,990.97
2019-01-08T11:29:56.144Z,990.94
2019-01-08T11:30:56.138Z,990.97
2019-01-08T11:31:56.131Z,990.85
2019-01-08T11:32:56.127Z,990.83
2019-01-08T11:33:56.118Z,990.81
2019-01-08T11:34:56.114Z,990.77
2019-01-08T11:35:56.108Z,990.82
2019-01-08T11:36:56.120Z,990.77
2019-01-08T11:37:56.093Z,990.73
2019-01-08T11:38:56.088Z,990.84
2019-01-08T11:39:56.092Z,990.81
2019-01-08T11:40:56.077Z,990.71
2019-01-08T11:41:56.070Z,990.62
2019-01-08T11:42:56.069Z,990.74
2019-01-08T11:43:56.058Z,990.76
2019-01-08T11:44:56.052Z,990.64
2019-01-08T11:45:56.047Z,990.73
2019-01-08T11:46:56.038Z,990.65
2019-01-08T11:48:03.534Z,990.66
2019-01-08T11:48:56.028Z,990.61
2019-01-08T11:49:56.020Z,990.62
2019-01-08T11:50:56.014Z,990.61
2019-01-08T11:51:56.012Z,990.61
2019-01-08T11:52:56.010Z,990.58
2019-01-08T11:53:56.000Z,990.57
2019-01-08T11:54:55.993Z,990.59
2019-01-08T11:55:55.988Z,990.64
2019-01-08T11:56:55.980Z,990.56
2019-01-08T11:57:55.973Z,990.47
2019-01-08T11:58:55.964Z,990.42
2019-01-08T11:59:55.959Z,990.5
2019-01-08T12:00:55.960Z,990.41
2019-01-08T12:01:57.300Z,990.36
2019-01-08T12:02:55.954Z,990.41
2019-01-08T12:03:55.952Z,990.48
2019-01-08T12:04:55.927Z,990.5
2019-01-08T12:05:57.323Z,990.42
2019-01-08T12:06:55.931Z,990.46
2019-01-08T12:07:55.905Z,990.33
2019-01-08T12:08:55.908Z,990.41
2019-01-08T12:09:55.905Z,990.31
2019-01-08T12:10:55.906Z,990.32
2019-01-08T12:11:55.892Z,990.19
2019-01-08T12:12:55.897Z,990.11
2019-01-08T12:13:55.869Z,990.13
2019-01-08T12:14:55.859Z,990.14
2019-01-08T12:15:55.853Z,990.15
2019-01-08T12:16:55.845Z,990.12
2019-01-08T12:17:55.845Z,990.12
2019-01-08T12:18:55.842Z,990.11
2019-01-08T12:19:55.826Z,990.06
2019-01-08T12:20:55.820Z,990.09
2019-01-08T12:21:55.811Z,989.98
2019-01-08T12:22:55.805Z,989.95
2019-01-08T12:23:55.801Z,989.92
2019-01-08T12:24:55.793Z,989.87
2019-01-08T12:25:55.785Z,989.87
2019-01-08T12:26:55.786Z,989.82
2019-01-08T12:27:59.028Z,989.9
2019-01-08T12:28:55.765Z,989.9
2019-01-08T12:29:55.758Z,989.88
2019-01-08T12:30:55.769Z,989.82